Navig8 Ametrine — V7GW5 — position and weather

sailwx.info

Track history (hours):
 
Tides and Currents Weather Stations Pressure Air Temp Water Temp Dewpoint Dewpoint Depression Visibility Wind Speed Wind Dir Waves Ship Positions

Navig8 Ametrine

Last reported at 2018-Jan-28 20:20 UTC. Time now 2018-Feb-24 04:44 UTC.
Position N 31°48' W 123°35'.
Warning: this ship's position is 26 days out of date.

Length 184 m; draft 10.1 m.

Type: Tanker. MMSI: 538005773.

Date/timePositionNaut miles runAvg speedWind from/ knotsBaromVisibWave heightAir tempDewpointWater temp
2018-Jan-28 20:20N 31°48' W 123°35'513.3
2018-Jan-28 20:00N 31°52' W 123°38'1413.3
2018-Jan-28 18:55N 32°04' W 123°48'513.3
2018-Jan-28 18:30N 32°08' W 123°52'  
2018-Jan-24 21:03N 48°18' W 125°22'511.9
2018-Jan-24 20:36N 48°21' W 125°15'112.3
2018-Jan-24 20:30N 48°21' W 125°14'611.6
2018-Jan-24 19:59N 48°25' W 125°07'612.1
2018-Jan-24 19:30N 48°30' W 125°02'612.5
2018-Jan-24 19:00N 48°31' W 124°53'611.8
2018-Jan-24 18:30N 48°31' W 124°44'612.5
2018-Jan-24 18:00N 48°28' W 124°35'612.4
2018-Jan-24 17:30N 48°26' W 124°27'612.7
2018-Jan-24 17:00N 48°24' W 124°18'612.5
2018-Jan-24 16:30N 48°21' W 124°09'612.7
2018-Jan-24 16:01N 48°19' W 124°00'611.9
2018-Jan-24 15:29N 48°17' W 123°51'712.0
2018-Jan-24 14:55N 48°16' W 123°41'511.4
2018-Jan-24 14:30N 48°15' W 123°34'5 9.3
2018-Jan-24 13:59N 48°18' W 123°28'510.9
2018-Jan-24 13:30N 48°23' W 123°24'4 9.0
2018-Jan-24 13:00N 48°23' W 123°17'4 8.7
2018-Jan-24 12:30N 48°26' W 123°13'612.0
2018-Jan-24 12:00N 48°32' W 123°13'613.0
2018-Jan-24 11:30N 48°38' W 123°15'511.0
2018-Jan-24 11:00N 48°43' W 123°11'713.4
2018-Jan-24 10:30N 48°47' W 123°02'510.3
2018-Jan-24 10:00N 48°51' W 123°05'713.0
2018-Jan-24 09:30N 48°56' W 123°12'612.8
2018-Jan-24 09:00N 49°00' W 123°19'612.1
2018-Jan-24 08:30N 49°05' W 123°24'713.2
2018-Jan-24 08:00N 49°12' W 123°22'713.3
2018-Jan-24 07:30N 49°18' W 123°19'612.6
2018-Jan-24 07:00N 49°19' W 123°09'4 7.6
2018-Jan-24 06:30N 49°18' W 123°04'3 6.3
2018-Jan-24 06:00N 49°18' W 122°59'3 5.8
2018-Jan-24 05:30N 49°18' W 122°54'2 2.6
2018-Jan-24 04:55N 49°17' W 122°52'0 0.0
2018-Jan-24 04:01N 49°17' W 122°52'0 0.0
2018-Jan-24 03:49N 49°17' W 122°52'0 0.0
2018-Jan-24 03:25N 49°17' W 122°52'0 0.0
2018-Jan-24 02:55N 49°17' W 122°52'0 0.0
2018-Jan-24 02:25N 49°17' W 122°52'0 0.0
2018-Jan-24 01:55N 49°17' W 122°52'0 0.0
2018-Jan-24 01:19N 49°17' W 122°52'0 0.0
2018-Jan-24 00:55N 49°17' W 122°52'0 0.0
2018-Jan-24 00:25N 49°17' W 122°52'0 0.0
2018-Jan-23 23:55N 49°17' W 122°52'0 0.0
2018-Jan-23 23:07N 49°17' W 122°52'0 0.0
2018-Jan-23 22:55N 49°17' W 122°52'0 0.0
2018-Jan-23 22:01N 49°17' W 122°52'0 0.0
2018-Jan-23 21:43N 49°17' W 122°52'0 0.0
2018-Jan-23 21:25N 49°17' W 122°52'0 0.0
2018-Jan-23 20:43N 49°17' W 122°52'0 0.0
2018-Jan-23 20:25N 49°17' W 122°52'0 0.0
2018-Jan-23 19:55N 49°17' W 122°52'0 0.0
2018-Jan-23 19:07N 49°17' W 122°52'0 0.0
2018-Jan-23 18:55N 49°17' W 122°52'0 0.0
2018-Jan-23 18:25N 49°17' W 122°52'0 0.0
2018-Jan-23 17:55N 49°17' W 122°52'0 0.0
2018-Jan-23 17:19N 49°17' W 122°52'0 0.0
2018-Jan-23 16:55N 49°17' W 122°52'0 0.0
2018-Jan-23 16:13N 49°17' W 122°52'0 0.0
2018-Jan-23 15:55N 49°17' W 122°52'0 0.0
2018-Jan-23 15:25N 49°17' W 122°52'0 0.0
2018-Jan-23 14:49N 49°17' W 122°52'0 0.0
2018-Jan-23 14:25N 49°17' W 122°52'0 0.0
2018-Jan-23 13:55N 49°17' W 122°52'0 0.0
2018-Jan-23 13:25N 49°17' W 122°52'0 0.0
2018-Jan-23 12:49N 49°17' W 122°52'0 0.0
2018-Jan-23 12:19N 49°17' W 122°52'0 0.0
2018-Jan-23 11:55N 49°17' W 122°52'0 0.0
2018-Jan-23 10:55N 49°17' W 122°52'0 0.0
2018-Jan-23 10:25N 49°17' W 122°52'0 0.0
2018-Jan-23 09:49N 49°17' W 122°52'0 0.0
2018-Jan-23 09:19N 49°17' W 122°52'0 0.0
2018-Jan-23 08:55N 49°17' W 122°52'0 0.0
2018-Jan-23 08:25N 49°17' W 122°52'0 0.0
2018-Jan-23 07:55N 49°17' W 122°52'0 0.0
2018-Jan-23 07:19N 49°17' W 122°52'0 0.0
2018-Jan-23 06:55N 49°17' W 122°52'0 0.0
2018-Jan-23 06:25N 49°17' W 122°52'0 0.0
2018-Jan-23 05:55N 49°17' W 122°52'0 0.0
2018-Jan-23 05:19N 49°17' W 122°52'0 0.0
2018-Jan-23 04:55N 49°17' W 122°52'0 0.0
2018-Jan-23 04:25N 49°17' W 122°52'0 0.0
2018-Jan-23 03:55N 49°17' W 122°52'0 0.0
2018-Jan-23 03:19N 49°17' W 122°52'0 0.0
2018-Jan-23 02:55N 49°17' W 122°52'0 0.0
2018-Jan-23 02:25N 49°17' W 122°52'0 0.0
2018-Jan-23 01:49N 49°17' W 122°52'0 0.0
2018-Jan-23 01:11N 49°17' W 122°52'0 0.1
2018-Jan-23 01:00N 49°17' W 122°52'2 4.5
2018-Jan-23 00:30N 49°18' W 122°56'3 6.8
2018-Jan-23 00:00N 49°18' W 123°01'2 4.5
2018-Jan-22 23:30N 49°17' W 123°04'0 0.0
2018-Jan-22 06:16N 49°17' W 123°04'0 0.0
2018-Jan-22 05:53N 49°17' W 123°04'0 0.0
2018-Jan-22 04:29N 49°17' W 123°04'0 0.0
2018-Jan-22 00:47N 49°17' W 123°04'0 0.6
2018-Jan-22 00:30N 49°18' W 123°04'3 5.2
2018-Jan-22 00:00N 49°19' W 123°08'611.0
2018-Jan-21 23:30N 49°18' W 123°16'713.3
2018-Jan-21 23:00N 49°12' W 123°19'713.8
2018-Jan-21 22:30N 49°05' W 123°20'713.7
2018-Jan-21 22:00N 48°59' W 123°13'612.8
2018-Jan-21 21:30N 48°55' W 123°06'712.8
2018-Jan-21 20:59N 48°50' W 123°00'511.2
2018-Jan-21 20:31N 48°45' W 123°05'612.9
2018-Jan-21 20:00N 48°42' W 123°13'611.7
2018-Jan-21 19:30N 48°36' W 123°13'713.8
2018-Jan-21 19:00N 48°30' W 123°10'611.4
2018-Jan-21 18:31N 48°24' W 123°11'611.8
2018-Jan-21 18:00N 48°22' W 123°19'3 6.9
2018-Jan-21 17:31N 48°21' W 123°24'5 8.7
2018-Jan-21 16:59N 48°16' W 123°26'22 8.4
2018-Jan-21 14:22N 48°14' W 123°59'411.5
2018-Jan-21 14:00N 48°16' W 124°04'611.9
2018-Jan-21 13:30N 48°19' W 124°13'611.5
2018-Jan-21 12:58N 48°21' W 124°21'511.0
2018-Jan-21 12:30N 48°23' W 124°28'713.1
2018-Jan-21 12:00N 48°26' W 124°37'611.4
2018-Jan-21 11:30N 48°29' W 124°44'510.2
2018-Jan-21 11:00N 48°29' W 124°52'5 9.9
2018-Jan-21 10:31N 48°29' W 124°59'713.8
2018-Jan-21 09:59N 48°22' W 125°04'714.0
2018-Jan-21 09:29N 48°16' W 125°09'510.4
2018-Jan-21 09:01N 48°12' W 125°12'713.9
2018-Jan-21 08:30N 48°05' W 125°17'  
Track history (hours):
 
Tides and Currents Weather Stations Pressure Air Temp Water Temp Dewpoint Dewpoint Depression Visibility Wind Speed Wind Dir Waves Ship Positions

Navig8 Ametrine

Last reported at 2018-Jan-28 20:20 UTC. Time now 2018-Feb-24 04:44 UTC.
Position N 31°48' W 123°35'.
Warning: this ship's position is 26 days out of date.

Length 184 m; draft 10.1 m.

Type: Tanker. MMSI: 538005773.

Date/timePositionNaut miles runAvg speedWind from/ knotsBaromVisibWave heightAir tempDewpointWater temp
2018-Jan-28 20:20N 31°48' W 123°35'513.3
2018-Jan-28 20:00N 31°52' W 123°38'1413.3
2018-Jan-28 18:55N 32°04' W 123°48'513.3
2018-Jan-28 18:30N 32°08' W 123°52'  
2018-Jan-24 21:03N 48°18' W 125°22'511.9
2018-Jan-24 20:36N 48°21' W 125°15'112.3
2018-Jan-24 20:30N 48°21' W 125°14'611.6
2018-Jan-24 19:59N 48°25' W 125°07'612.1
2018-Jan-24 19:30N 48°30' W 125°02'612.5
2018-Jan-24 19:00N 48°31' W 124°53'611.8
2018-Jan-24 18:30N 48°31' W 124°44'612.5
2018-Jan-24 18:00N 48°28' W 124°35'612.4
2018-Jan-24 17:30N 48°26' W 124°27'612.7
2018-Jan-24 17:00N 48°24' W 124°18'612.5
2018-Jan-24 16:30N 48°21' W 124°09'612.7
2018-Jan-24 16:01N 48°19' W 124°00'611.9
2018-Jan-24 15:29N 48°17' W 123°51'712.0
2018-Jan-24 14:55N 48°16' W 123°41'511.4
2018-Jan-24 14:30N 48°15' W 123°34'5 9.3
2018-Jan-24 13:59N 48°18' W 123°28'510.9
2018-Jan-24 13:30N 48°23' W 123°24'4 9.0
2018-Jan-24 13:00N 48°23' W 123°17'4 8.7
2018-Jan-24 12:30N 48°26' W 123°13'612.0
2018-Jan-24 12:00N 48°32' W 123°13'613.0
2018-Jan-24 11:30N 48°38' W 123°15'511.0
2018-Jan-24 11:00N 48°43' W 123°11'713.4
2018-Jan-24 10:30N 48°47' W 123°02'510.3
2018-Jan-24 10:00N 48°51' W 123°05'713.0
2018-Jan-24 09:30N 48°56' W 123°12'612.8
2018-Jan-24 09:00N 49°00' W 123°19'612.1
2018-Jan-24 08:30N 49°05' W 123°24'713.2
2018-Jan-24 08:00N 49°12' W 123°22'713.3
2018-Jan-24 07:30N 49°18' W 123°19'612.6
2018-Jan-24 07:00N 49°19' W 123°09'4 7.6
2018-Jan-24 06:30N 49°18' W 123°04'3 6.3
2018-Jan-24 06:00N 49°18' W 122°59'3 5.8
2018-Jan-24 05:30N 49°18' W 122°54'2 2.6
2018-Jan-24 04:55N 49°17' W 122°52'0 0.0
2018-Jan-24 04:01N 49°17' W 122°52'0 0.0
2018-Jan-24 03:49N 49°17' W 122°52'0 0.0
2018-Jan-24 03:25N 49°17' W 122°52'0 0.0
2018-Jan-24 02:55N 49°17' W 122°52'0 0.0
2018-Jan-24 02:25N 49°17' W 122°52'0 0.0
2018-Jan-24 01:55N 49°17' W 122°52'0 0.0
2018-Jan-24 01:19N 49°17' W 122°52'0 0.0
2018-Jan-24 00:55N 49°17' W 122°52'0 0.0
2018-Jan-24 00:25N 49°17' W 122°52'0 0.0
2018-Jan-23 23:55N 49°17' W 122°52'0 0.0
2018-Jan-23 23:07N 49°17' W 122°52'0 0.0
2018-Jan-23 22:55N 49°17' W 122°52'0 0.0
2018-Jan-23 22:01N 49°17' W 122°52'0 0.0
2018-Jan-23 21:43N 49°17' W 122°52'0 0.0
2018-Jan-23 21:25N 49°17' W 122°52'0 0.0
2018-Jan-23 20:43N 49°17' W 122°52'0 0.0
2018-Jan-23 20:25N 49°17' W 122°52'0 0.0
2018-Jan-23 19:55N 49°17' W 122°52'0 0.0
2018-Jan-23 19:07N 49°17' W 122°52'0 0.0
2018-Jan-23 18:55N 49°17' W 122°52'0 0.0
2018-Jan-23 18:25N 49°17' W 122°52'0 0.0
2018-Jan-23 17:55N 49°17' W 122°52'0 0.0
2018-Jan-23 17:19N 49°17' W 122°52'0 0.0
2018-Jan-23 16:55N 49°17' W 122°52'0 0.0
2018-Jan-23 16:13N 49°17' W 122°52'0 0.0
2018-Jan-23 15:55N 49°17' W 122°52'0 0.0
2018-Jan-23 15:25N 49°17' W 122°52'0 0.0
2018-Jan-23 14:49N 49°17' W 122°52'0 0.0
2018-Jan-23 14:25N 49°17' W 122°52'0 0.0
2018-Jan-23 13:55N 49°17' W 122°52'0 0.0
2018-Jan-23 13:25N 49°17' W 122°52'0 0.0
2018-Jan-23 12:49N 49°17' W 122°52'0 0.0
2018-Jan-23 12:19N 49°17' W 122°52'0 0.0
2018-Jan-23 11:55N 49°17' W 122°52'0 0.0
2018-Jan-23 10:55N 49°17' W 122°52'0 0.0
2018-Jan-23 10:25N 49°17' W 122°52'0 0.0
2018-Jan-23 09:49N 49°17' W 122°52'0 0.0
2018-Jan-23 09:19N 49°17' W 122°52'0 0.0
2018-Jan-23 08:55N 49°17' W 122°52'0 0.0
2018-Jan-23 08:25N 49°17' W 122°52'0 0.0
2018-Jan-23 07:55N 49°17' W 122°52'0 0.0
2018-Jan-23 07:19N 49°17' W 122°52'0 0.0
2018-Jan-23 06:55N 49°17' W 122°52'0 0.0
2018-Jan-23 06:25N 49°17' W 122°52'0 0.0
2018-Jan-23 05:55N 49°17' W 122°52'0 0.0
2018-Jan-23 05:19N 49°17' W 122°52'0 0.0
2018-Jan-23 04:55N 49°17' W 122°52'0 0.0
2018-Jan-23 04:25N 49°17' W 122°52'0 0.0
2018-Jan-23 03:55N 49°17' W 122°52'0 0.0
2018-Jan-23 03:19N 49°17' W 122°52'0 0.0
2018-Jan-23 02:55N 49°17' W 122°52'0 0.0
2018-Jan-23 02:25N 49°17' W 122°52'0 0.0
2018-Jan-23 01:49N 49°17' W 122°52'0 0.0
2018-Jan-23 01:11N 49°17' W 122°52'0 0.1
2018-Jan-23 01:00N 49°17' W 122°52'2 4.5
2018-Jan-23 00:30N 49°18' W 122°56'3 6.8
2018-Jan-23 00:00N 49°18' W 123°01'2 4.5
2018-Jan-22 23:30N 49°17' W 123°04'0 0.0
2018-Jan-22 06:16N 49°17' W 123°04'0 0.0
2018-Jan-22 05:53N 49°17' W 123°04'0 0.0
2018-Jan-22 04:29N 49°17' W 123°04'0 0.0
2018-Jan-22 00:47N 49°17' W 123°04'0 0.6
2018-Jan-22 00:30N 49°18' W 123°04'3 5.2
2018-Jan-22 00:00N 49°19' W 123°08'611.0
2018-Jan-21 23:30N 49°18' W 123°16'713.3
2018-Jan-21 23:00N 49°12' W 123°19'713.8
2018-Jan-21 22:30N 49°05' W 123°20'713.7
2018-Jan-21 22:00N 48°59' W 123°13'612.8
2018-Jan-21 21:30N 48°55' W 123°06'712.8
2018-Jan-21 20:59N 48°50' W 123°00'511.2
2018-Jan-21 20:31N 48°45' W 123°05'612.9
2018-Jan-21 20:00N 48°42' W 123°13'611.7
2018-Jan-21 19:30N 48°36' W 123°13'713.8
2018-Jan-21 19:00N 48°30' W 123°10'611.4
2018-Jan-21 18:31N 48°24' W 123°11'611.8
2018-Jan-21 18:00N 48°22' W 123°19'3 6.9
2018-Jan-21 17:31N 48°21' W 123°24'5 8.7
2018-Jan-21 16:59N 48°16' W 123°26'22 8.4
2018-Jan-21 14:22N 48°14' W 123°59'411.5
2018-Jan-21 14:00N 48°16' W 124°04'611.9
2018-Jan-21 13:30N 48°19' W 124°13'611.5
2018-Jan-21 12:58N 48°21' W 124°21'511.0
2018-Jan-21 12:30N 48°23' W 124°28'713.1
2018-Jan-21 12:00N 48°26' W 124°37'611.4
2018-Jan-21 11:30N 48°29' W 124°44'510.2
2018-Jan-21 11:00N 48°29' W 124°52'5 9.9
2018-Jan-21 10:31N 48°29' W 124°59'713.8
2018-Jan-21 09:59N 48°22' W 125°04'714.0
2018-Jan-21 09:29N 48°16' W 125°09'510.4
2018-Jan-21 09:01N 48°12' W 125°12'713.9
2018-Jan-21 08:30N 48°05' W 125°17'  

Dump ship's entire track history